createdAt,value
2023-01-25T00:01:45.261Z,100537.19
2023-01-25T00:03:47.944Z,100536.64
2023-01-25T00:05:59.032Z,100536.71
2023-01-25T00:08:02.275Z,100536.94
2023-01-25T00:10:05.624Z,100534.77
2023-01-25T00:12:08.704Z,100533.59
2023-01-25T00:14:14.668Z,100527.45
2023-01-25T00:16:17.735Z,100525.17
2023-01-25T00:18:22.205Z,100526.16
2023-01-25T00:20:27.783Z,100521.98
2023-01-25T00:22:30.916Z,100522.85
2023-01-25T00:24:33.644Z,100521.73
2023-01-25T00:26:36.440Z,100519.53
2023-01-25T00:28:39.795Z,100519.52
2023-01-25T00:30:42.789Z,100517.83
2023-01-25T00:33:00.190Z,100514.45
2023-01-25T00:35:06.328Z,100511.23
2023-01-25T00:37:21.100Z,100511.16
2023-01-25T00:39:26.133Z,100508.35
2023-01-25T00:41:30.160Z,100506.77
2023-01-25T00:43:34.004Z,100503.11
2023-01-25T00:45:42.589Z,100502.34
2023-01-25T00:47:45.822Z,100501.69
2023-01-25T00:49:49.244Z,100501.45
2023-01-25T00:51:54.028Z,100500.55
2023-01-25T00:53:56.847Z,100499.79
2023-01-25T00:56:00.787Z,100497.59
2023-01-25T00:58:05.371Z,100495.98
2023-01-25T01:00:10.553Z,100490.02
2023-01-25T01:02:14.562Z,100492.89
2023-01-25T01:04:19.012Z,100495.86
2023-01-25T01:06:21.760Z,100497.59
2023-01-25T01:08:25.211Z,100495.59
2023-01-25T01:10:28.975Z,100501.11
2023-01-25T01:12:35.585Z,100504.80
2023-01-25T01:14:38.975Z,100505.98
2023-01-25T01:16:42.100Z,100507.51
2023-01-25T01:18:47.594Z,100506.21
2023-01-25T01:20:51.454Z,100504.80
2023-01-25T01:22:55.816Z,100502.60
2023-01-25T01:25:00.891Z,100497.86
2023-01-25T01:27:03.618Z,100498.91
2023-01-25T01:29:07.970Z,100497.67
2023-01-25T01:31:21.740Z,100491.73
2023-01-25T01:33:44.802Z,100491.21
2023-01-25T01:35:47.582Z,100495.69
2023-01-25T01:37:50.861Z,100489.55
2023-01-25T01:39:53.562Z,100486.20
2023-01-25T01:41:56.811Z,100488.61
2023-01-25T01:44:00.940Z,100484.61
2023-01-25T01:46:16.690Z,100482.23
2023-01-25T01:48:49.229Z,100484.83
2023-01-25T01:51:00.512Z,100481.80
2023-01-25T01:53:05.813Z,100480.84
2023-01-25T01:55:15.948Z,100479.10
2023-01-25T01:57:26.926Z,100478.56
2023-01-25T01:59:41.232Z,100478.95
2023-01-25T02:01:44.826Z,100479.25
2023-01-25T02:03:49.075Z,100480.73
2023-01-25T02:06:12.635Z,100477.63
2023-01-25T02:08:19.366Z,100480.02
2023-01-25T02:10:26.760Z,100477.69
2023-01-25T02:12:32.846Z,100476.50
2023-01-25T02:14:45.208Z,100475.95
2023-01-25T02:16:48.240Z,100482.23
2023-01-25T02:18:52.235Z,100473.84
2023-01-25T02:20:58.095Z,100474.55
2023-01-25T02:23:11.565Z,100476.52
2023-01-25T02:25:16.616Z,100473.65
2023-01-25T02:27:21.640Z,100476.92
2023-01-25T02:29:27.595Z,100476.11
2023-01-25T02:31:30.855Z,100476.80
2023-01-25T02:33:35.779Z,100476.54
2023-01-25T02:35:51.347Z,100477.45
2023-01-25T02:37:54.144Z,100475.27
2023-01-25T02:39:56.940Z,100476.98
2023-01-25T02:42:01.917Z,100472.80
2023-01-25T02:44:11.670Z,100477.17
2023-01-25T02:46:36.238Z,100480.50
2023-01-25T02:48:39.031Z,100478.81
2023-01-25T02:50:42.133Z,100479.77
2023-01-25T02:52:45.063Z,100477.83
2023-01-25T02:54:48.328Z,100473.94
2023-01-25T02:56:51.282Z,100471.11
2023-01-25T02:58:54.516Z,100463.23
2023-01-25T03:00:57.950Z,100463.59
2023-01-25T03:03:02.104Z,100464.67
2023-01-25T03:05:06.705Z,100463.22
2023-01-25T03:07:09.722Z,100461.25
2023-01-25T03:09:13.315Z,100459.14
2023-01-25T03:11:20.222Z,100455.78
2023-01-25T03:13:25.331Z,100455.48
2023-01-25T03:15:28.744Z,100449.38
2023-01-25T03:17:32.033Z,100445.98
2023-01-25T03:19:35.729Z,100445.44
2023-01-25T03:21:41.131Z,100444.95
2023-01-25T03:23:46.148Z,100445.27
2023-01-25T03:25:51.043Z,100446.44
2023-01-25T03:27:58.429Z,100442.85
2023-01-25T03:30:01.377Z,100444.63
2023-01-25T03:32:09.838Z,100440.29
2023-01-25T03:34:16.107Z,100436.19
2023-01-25T03:36:19.856Z,100433.19
2023-01-25T03:38:23.889Z,100429.42
2023-01-25T03:40:27.079Z,100430.49
2023-01-25T03:42:30.312Z,100426.93
2023-01-25T03:44:34.062Z,100427.96
2023-01-25T03:46:39.692Z,100421.23
2023-01-25T03:48:42.827Z,100421.14
2023-01-25T03:51:05.805Z,100421.84
2023-01-25T03:53:17.318Z,100418.39
2023-01-25T03:55:20.034Z,100414.33
2023-01-25T03:57:25.280Z,100410.12
2023-01-25T03:59:35.266Z,100406.41
2023-01-25T04:01:38.574Z,100406.10
2023-01-25T04:03:41.311Z,100402.85
2023-01-25T04:05:44.675Z,100397.86
2023-01-25T04:07:48.066Z,100397.54
2023-01-25T04:09:52.243Z,100395.30
2023-01-25T04:11:55.961Z,100397.89
2023-01-25T04:13:59.121Z,100394.13
2023-01-25T04:16:08.413Z,100396.34
2023-01-25T04:18:35.359Z,100394.91
2023-01-25T04:20:42.422Z,100393.89
2023-01-25T04:22:46.349Z,100394.75
2023-01-25T04:24:50.279Z,100391.02
2023-01-25T04:26:56.140Z,100388.84
2023-01-25T04:29:00.053Z,100388.27
2023-01-25T04:31:06.587Z,100384.33
2023-01-25T04:33:13.498Z,100381.86
2023-01-25T04:35:17.875Z,100380.67
2023-01-25T04:37:22.764Z,100379.77
2023-01-25T04:39:31.378Z,100377.90
2023-01-25T04:41:36.093Z,100375.79
2023-01-25T04:43:39.728Z,100372.75
2023-01-25T04:45:48.013Z,100368.32
2023-01-25T04:48:02.549Z,100368.08
2023-01-25T04:50:13.043Z,100368.28
2023-01-25T04:52:16.103Z,100366.88
2023-01-25T04:54:19.634Z,100365.45
2023-01-25T04:56:22.455Z,100365.80
2023-01-25T04:58:30.020Z,100368.10
2023-01-25T05:00:36.276Z,100366.61
2023-01-25T05:02:39.737Z,100363.40
2023-01-25T05:04:49.592Z,100362.00
2023-01-25T05:06:55.657Z,100360.11
2023-01-25T05:08:59.730Z,100357.41
2023-01-25T05:11:03.382Z,100356.69
2023-01-25T05:13:16.738Z,100345.08
2023-01-25T05:15:20.924Z,100345.02
2023-01-25T05:17:24.541Z,100342.30
2023-01-25T05:19:28.423Z,100343.48
2023-01-25T05:21:54.587Z,100339.40
2023-01-25T05:23:58.342Z,100339.88
2023-01-25T05:26:19.905Z,100345.09
2023-01-25T05:28:22.872Z,100343.67
2023-01-25T05:30:45.222Z,100339.30
2023-01-25T05:32:59.585Z,100340.90
2023-01-25T05:35:03.324Z,100341.85
2023-01-25T05:37:10.268Z,100340.42
2023-01-25T05:39:15.977Z,100343.70
2023-01-25T05:41:21.502Z,100339.55
2023-01-25T05:43:24.384Z,100340.00
2023-01-25T05:45:27.259Z,100339.28
2023-01-25T05:47:30.866Z,100334.96
2023-01-25T05:49:33.807Z,100335.36
2023-01-25T05:51:38.607Z,100331.70
2023-01-25T05:53:42.324Z,100330.13
2023-01-25T05:55:45.651Z,100327.02
2023-01-25T05:57:55.823Z,100324.71
2023-01-25T05:59:59.710Z,100327.71
2023-01-25T06:02:02.758Z,100324.23
2023-01-25T06:04:05.889Z,100323.58
2023-01-25T06:06:08.795Z,100319.65
2023-01-25T06:08:14.600Z,100321.83
2023-01-25T06:10:24.041Z,100319.95
2023-01-25T06:12:29.488Z,100318.45
2023-01-25T06:14:33.320Z,100319.98
2023-01-25T06:16:38.450Z,100319.71
2023-01-25T06:19:19.840Z,100322.84
2023-01-25T06:21:42.854Z,100324.75
2023-01-25T06:23:47.931Z,100322.22
2023-01-25T06:28:14.473Z,100323.61
2023-01-25T06:30:17.398Z,100324.48
2023-01-25T06:32:20.678Z,100322.39
2023-01-25T06:34:24.787Z,100322.71
2023-01-25T06:36:28.299Z,100319.73
2023-01-25T06:38:32.012Z,100324.04
2023-01-25T06:40:35.062Z,100321.00
2023-01-25T06:42:38.087Z,100321.30
2023-01-25T06:44:40.858Z,100320.00
2023-01-25T06:46:45.900Z,100318.70
2023-01-25T06:48:49.166Z,100317.48
2023-01-25T06:50:56.553Z,100321.23
2023-01-25T06:52:59.860Z,100319.61
2023-01-25T06:55:08.460Z,100320.36
2023-01-25T06:57:12.081Z,100317.28
2023-01-25T06:59:16.053Z,100316.82
2023-01-25T07:01:27.421Z,100318.22
2023-01-25T07:03:32.379Z,100317.18
2023-01-25T07:05:35.018Z,100321.13
2023-01-25T07:07:38.651Z,100322.59
2023-01-25T07:09:41.479Z,100327.88
2023-01-25T07:11:44.760Z,100327.77
2023-01-25T07:13:48.752Z,100329.14
2023-01-25T07:16:00.514Z,100324.09
2023-01-25T07:18:15.618Z,100323.27
2023-01-25T07:20:25.758Z,100323.45
2023-01-25T07:22:29.254Z,100321.10
2023-01-25T07:24:32.365Z,100319.52
2023-01-25T07:26:35.414Z,100320.85
2023-01-25T07:28:38.277Z,100322.52
2023-01-25T07:30:42.546Z,100322.71
2023-01-25T07:32:46.103Z,100321.45
2023-01-25T07:34:49.015Z,100319.95
2023-01-25T07:37:02.390Z,100317.25
2023-01-25T07:39:10.168Z,100320.50
2023-01-25T07:41:13.347Z,100320.86
2023-01-25T07:43:16.041Z,100318.48
2023-01-25T07:45:18.869Z,100316.71
2023-01-25T07:47:23.936Z,100320.80
2023-01-25T07:49:26.630Z,100316.99
2023-01-25T07:51:31.031Z,100316.50
2023-01-25T07:53:34.181Z,100313.98
2023-01-25T07:55:38.083Z,100312.20
2023-01-25T07:57:44.982Z,100312.53
2023-01-25T07:59:50.408Z,100312.39
2023-01-25T08:01:53.566Z,100313.48
2023-01-25T08:03:57.279Z,100311.98
2023-01-25T08:06:00.438Z,100311.90
2023-01-25T08:08:03.598Z,100311.39
2023-01-25T08:10:07.178Z,100309.34
2023-01-25T08:12:10.326Z,100306.88
2023-01-25T08:14:13.454Z,100308.04
2023-01-25T08:16:22.008Z,100306.64
2023-01-25T08:18:25.575Z,100304.95
2023-01-25T08:20:30.073Z,100306.40
2023-01-25T08:22:32.773Z,100301.15
2023-01-25T08:24:36.066Z,100300.56
2023-01-25T08:26:40.028Z,100300.68
2023-01-25T08:28:43.541Z,100302.65
2023-01-25T08:30:56.844Z,100299.61
2023-01-25T08:33:00.294Z,100298.41
2023-01-25T08:35:03.121Z,100300.56
2023-01-25T08:37:06.047Z,100295.52
2023-01-25T08:39:12.226Z,100295.11
2023-01-25T08:41:17.898Z,100301.16
2023-01-25T08:43:23.981Z,100298.74
2023-01-25T08:45:28.062Z,100296.73
2023-01-25T08:47:31.067Z,100295.95
2023-01-25T08:49:38.308Z,100291.84
2023-01-25T08:51:41.713Z,100293.54
2023-01-25T08:53:44.594Z,100286.28
2023-01-25T08:55:47.389Z,100285.55
2023-01-25T08:57:49.975Z,100281.27
2023-01-25T08:59:52.742Z,100279.98
2023-01-25T09:01:55.349Z,100275.56
2023-01-25T09:03:59.368Z,100275.34
2023-01-25T09:06:03.463Z,100272.02
2023-01-25T09:08:09.881Z,100273.45
2023-01-25T09:10:12.675Z,100270.33
2023-01-25T09:12:15.269Z,100268.67
2023-01-25T09:14:18.408Z,100261.83
2023-01-25T09:16:32.257Z,100258.86
2023-01-25T09:18:37.276Z,100261.19
2023-01-25T09:20:40.748Z,100262.34
2023-01-25T09:22:45.648Z,100262.02
2023-01-25T09:24:52.396Z,100262.46
2023-01-25T09:26:59.628Z,100259.18
2023-01-25T09:29:04.651Z,100260.91
2023-01-25T09:31:20.904Z,100258.77
2023-01-25T09:33:43.462Z,100258.12
2023-01-25T09:35:49.301Z,100259.86
2023-01-25T09:37:53.716Z,100257.71
2023-01-25T09:39:57.588Z,100254.67
2023-01-25T09:42:22.438Z,100255.90
2023-01-25T09:45:03.712Z,100256.77
2023-01-25T09:47:24.505Z,100260.84
2023-01-25T09:49:49.508Z,100264.87
2023-01-25T09:52:29.790Z,100263.13
2023-01-25T09:54:46.472Z,100263.65
2023-01-25T09:56:52.439Z,100266.94
2023-01-25T09:59:05.922Z,100264.40
2023-01-25T10:01:21.681Z,100261.32
2023-01-25T10:03:39.751Z,100255.68
2023-01-25T10:05:59.797Z,100253.48
2023-01-25T10:08:17.829Z,100247.54
2023-01-25T10:10:33.676Z,100240.50
2023-01-25T10:12:39.652Z,100241.48
2023-01-25T10:14:42.770Z,100238.70
2023-01-25T10:16:48.440Z,100240.45
2023-01-25T10:19:18.810Z,100237.00
2023-01-25T10:21:30.499Z,100234.92
2023-01-25T10:24:10.641Z,100237.08
2023-01-25T10:26:27.103Z,100233.42
2023-01-25T10:28:36.311Z,100228.55
2023-01-25T10:30:53.536Z,100225.94
2023-01-25T10:33:00.302Z,100225.29
2023-01-25T10:35:33.474Z,100221.49
2023-01-25T10:37:40.157Z,100218.42
2023-01-25T10:40:00.567Z,100212.98
2023-01-25T10:42:09.098Z,100210.27
2023-01-25T10:44:21.691Z,100209.95
2023-01-25T10:46:26.752Z,100201.30
2023-01-25T10:48:34.122Z,100196.53
2023-01-25T10:50:47.707Z,100198.13
2023-01-25T10:52:58.366Z,100194.26
2023-01-25T10:55:13.927Z,100190.89
2023-01-25T10:57:22.531Z,100189.02
2023-01-25T10:59:28.401Z,100187.31
2023-01-25T11:01:35.970Z,100189.11
2023-01-25T11:03:46.749Z,100183.55
2023-01-25T11:05:57.629Z,100178.48
2023-01-25T11:08:25.671Z,100175.79
2023-01-25T11:10:36.729Z,100170.16
2023-01-25T11:12:41.303Z,100171.17
2023-01-25T11:14:44.396Z,100168.80
2023-01-25T11:16:48.326Z,100163.61
2023-01-25T11:18:53.943Z,100162.19
2023-01-25T11:21:23.336Z,100163.02
2023-01-25T11:23:26.917Z,100160.30
2023-01-25T11:25:33.173Z,100155.11
2023-01-25T11:27:36.237Z,100149.02
2023-01-25T11:29:39.090Z,100145.65
2023-01-25T11:31:46.942Z,100137.84
2023-01-25T11:33:50.819Z,100134.44
2023-01-25T11:36:15.672Z,100128.18
2023-01-25T11:38:23.155Z,100123.61
2023-01-25T11:40:39.941Z,100118.71
2023-01-25T11:43:02.958Z,100118.54
2023-01-25T11:45:15.064Z,100112.59
2023-01-25T11:47:41.156Z,100109.48
2023-01-25T11:49:58.530Z,100107.38
2023-01-25T11:52:44.096Z,100095.23
2023-01-25T11:55:05.427Z,100091.77
2023-01-25T11:57:27.190Z,100085.23
2023-01-25T11:59:38.985Z,100081.71
2023-01-25T12:02:04.818Z,100075.58
2023-01-25T12:04:25.302Z,100071.07
2023-01-25T12:07:04.041Z,100067.23
2023-01-25T12:09:25.910Z,100055.71
2023-01-25T12:11:44.879Z,100053.42
2023-01-25T12:14:06.782Z,100049.48
2023-01-25T12:16:13.122Z,100041.47
2023-01-25T12:18:39.898Z,100039.11
2023-01-25T12:21:13.316Z,100034.33
2023-01-25T12:23:45.723Z,100029.29
2023-01-25T12:26:07.326Z,100023.09
2023-01-25T12:28:35.025Z,100018.97
2023-01-25T12:30:43.863Z,100018.44
2023-01-25T12:33:14.608Z,100016.89
2023-01-25T12:35:29.249Z,100014.23
2023-01-25T12:37:37.146Z,100006.15
2023-01-25T12:39:55.016Z,100004.11
2023-01-25T12:42:16.611Z,100000.98
2023-01-25T12:44:39.901Z,99995.60
2023-01-25T12:47:15.094Z,99993.79
2023-01-25T12:49:48.288Z,99986.23
2023-01-25T12:51:53.649Z,99984.73
2023-01-25T12:53:58.319Z,99979.09
2023-01-25T12:56:07.950Z,99972.92
2023-01-25T12:58:36.914Z,99970.08
2023-01-25T13:00:45.748Z,99962.23
2023-01-25T13:03:04.380Z,99962.45
2023-01-25T13:05:16.795Z,99961.08
2023-01-25T13:07:33.608Z,99954.31
2023-01-25T13:09:52.317Z,99946.35
2023-01-25T13:11:55.359Z,99946.52
2023-01-25T13:14:36.507Z,99938.48
2023-01-25T13:17:09.824Z,99936.48
2023-01-25T13:19:43.590Z,99935.80
2023-01-25T13:21:49.538Z,99928.96
2023-01-25T13:24:18.808Z,99926.02
2023-01-25T13:26:24.965Z,99923.71
2023-01-25T13:28:47.457Z,99922.39
2023-01-25T13:30:54.081Z,99921.55
2023-01-25T13:33:00.453Z,99920.27
2023-01-25T13:35:05.921Z,99920.16
2023-01-25T13:37:29.375Z,99921.83
2023-01-25T13:39:33.068Z,99917.22
2023-01-25T13:41:36.078Z,99917.14
2023-01-25T13:43:41.066Z,99912.03
2023-01-25T13:45:44.835Z,99911.23
2023-01-25T13:48:05.029Z,99908.39
2023-01-25T13:50:27.015Z,99904.53
2023-01-25T13:52:33.157Z,99906.77
2023-01-25T13:54:43.700Z,99903.44
2023-01-25T13:56:47.226Z,99903.55
2023-01-25T13:58:50.711Z,99901.92
2023-01-25T14:01:00.583Z,99893.13
2023-01-25T14:03:06.363Z,99890.50
2023-01-25T14:05:27.465Z,99890.94
2023-01-25T14:07:33.358Z,99890.73
2023-01-25T14:09:43.478Z,99886.77
2023-01-25T14:11:58.686Z,99880.92
2023-01-25T14:14:20.761Z,99878.48
2023-01-25T14:16:23.940Z,99876.70
2023-01-25T14:18:33.311Z,99876.17
2023-01-25T14:20:35.982Z,99876.35
2023-01-25T14:22:40.521Z,99876.48
2023-01-25T14:24:44.625Z,99868.94
2023-01-25T14:26:48.495Z,99866.52
2023-01-25T14:29:01.799Z,99863.40
2023-01-25T14:31:06.137Z,99861.06
2023-01-25T14:33:30.596Z,99857.85
2023-01-25T14:35:49.201Z,99856.45
2023-01-25T14:37:57.551Z,99854.05
2023-01-25T14:40:00.702Z,99851.23
2023-01-25T14:42:05.465Z,99850.98
2023-01-25T14:44:14.909Z,99845.44
2023-01-25T14:46:27.042Z,99844.33
2023-01-25T14:48:46.003Z,99841.22
2023-01-25T14:50:49.179Z,99840.13
2023-01-25T14:52:51.927Z,99837.82
2023-01-25T14:54:58.409Z,99840.26
2023-01-25T14:57:07.552Z,99832.42
2023-01-25T14:59:26.829Z,99829.55
2023-01-25T15:01:32.206Z,99820.08
2023-01-25T15:03:45.065Z,99816.64
2023-01-25T15:05:48.497Z,99814.07
2023-01-25T15:08:07.762Z,99815.81
2023-01-25T15:10:27.045Z,99810.84
2023-01-25T15:12:34.373Z,99807.62
2023-01-25T15:14:49.180Z,99800.70
2023-01-25T15:16:52.259Z,99799.58
2023-01-25T15:18:57.541Z,99792.98
2023-01-25T15:21:02.937Z,99788.13
2023-01-25T15:23:30.957Z,99789.02
2023-01-25T15:25:34.654Z,99791.10
2023-01-25T15:27:46.270Z,99790.61
2023-01-25T15:29:50.768Z,99791.55
2023-01-25T15:31:55.853Z,99790.81
2023-01-25T15:34:02.439Z,99791.73
2023-01-25T15:36:08.439Z,99792.88
2023-01-25T15:38:13.052Z,99789.59
2023-01-25T15:40:17.948Z,99789.94
2023-01-25T15:42:22.280Z,99784.16
2023-01-25T15:44:27.096Z,99779.80
2023-01-25T15:46:33.404Z,99777.67
2023-01-25T15:48:41.255Z,99772.89
2023-01-25T15:50:44.316Z,99770.25
2023-01-25T15:52:48.292Z,99760.11
2023-01-25T15:55:00.917Z,99763.52
2023-01-25T15:57:04.672Z,99763.77
2023-01-25T15:59:09.297Z,99762.52
2023-01-25T16:01:27.289Z,99763.95
2023-01-25T16:03:35.004Z,99761.74
2023-01-25T16:05:38.782Z,99764.55
2023-01-25T16:07:45.328Z,99763.68
2023-01-25T16:09:48.228Z,99765.08
2023-01-25T16:11:55.237Z,99763.91
2023-01-25T16:13:58.009Z,99759.23
2023-01-25T16:16:02.570Z,99752.95
2023-01-25T16:18:05.817Z,99747.33
2023-01-25T16:20:20.340Z,99744.34
2023-01-25T16:22:23.118Z,99742.25
2023-01-25T16:24:26.892Z,99741.67
2023-01-25T16:26:32.663Z,99739.79
2023-01-25T16:28:36.621Z,99737.95
2023-01-25T16:30:44.944Z,99736.99
2023-01-25T16:32:50.122Z,99737.81
2023-01-25T16:34:54.811Z,99740.38
2023-01-25T16:37:00.245Z,99742.11
2023-01-25T16:39:16.374Z,99740.84
2023-01-25T16:41:19.347Z,99743.13
2023-01-25T16:43:31.678Z,99743.73
2023-01-25T16:45:40.704Z,99739.79
2023-01-25T16:47:43.678Z,99741.35
2023-01-25T16:49:49.403Z,99743.87
2023-01-25T16:51:54.975Z,99743.87
2023-01-25T16:53:59.801Z,99742.97
2023-01-25T16:56:03.078Z,99742.80
2023-01-25T16:58:09.088Z,99738.71
2023-01-25T17:00:14.632Z,99735.23
2023-01-25T17:02:17.859Z,99733.70
2023-01-25T17:04:22.756Z,99738.47
2023-01-25T17:06:36.001Z,99736.42
2023-01-25T17:08:39.086Z,99732.58
2023-01-25T17:10:41.941Z,99729.39
2023-01-25T17:12:46.186Z,99728.96
2023-01-25T17:14:49.428Z,99731.75
2023-01-25T17:16:53.989Z,99727.79
2023-01-25T17:19:00.338Z,99723.62
2023-01-25T17:21:06.898Z,99723.91
2023-01-25T17:23:10.861Z,99719.48
2023-01-25T17:25:15.684Z,99719.90
2023-01-25T17:27:21.353Z,99717.27
2023-01-25T17:29:24.509Z,99718.51
2023-01-25T17:31:31.886Z,99718.24
2023-01-25T17:33:36.252Z,99715.75
2023-01-25T17:35:44.988Z,99713.00
2023-01-25T17:37:48.703Z,99709.78
2023-01-25T17:39:54.444Z,99706.73
2023-01-25T17:41:57.378Z,99709.43
2023-01-25T17:44:00.425Z,99713.17
2023-01-25T17:46:14.067Z,99707.58
2023-01-25T17:48:27.020Z,99700.73
2023-01-25T17:50:30.385Z,99696.06
2023-01-25T17:52:33.708Z,99690.07
2023-01-25T17:54:37.315Z,99681.30
2023-01-25T17:56:43.672Z,99683.08
2023-01-25T17:58:48.418Z,99680.90
2023-01-25T18:00:59.369Z,99682.88
2023-01-25T18:03:08.848Z,99685.45
2023-01-25T18:05:15.730Z,99683.73
2023-01-25T18:07:21.263Z,99684.30
2023-01-25T18:09:26.307Z,99689.69
2023-01-25T18:11:33.027Z,99680.69
2023-01-25T18:13:41.564Z,99675.40
2023-01-25T18:15:55.020Z,99669.65
2023-01-25T18:18:01.727Z,99671.48
2023-01-25T18:20:06.469Z,99668.70
2023-01-25T18:22:09.340Z,99667.29
2023-01-25T18:24:15.027Z,99664.21
2023-01-25T18:26:21.390Z,99665.61
2023-01-25T18:28:28.440Z,99665.15
2023-01-25T18:30:39.827Z,99665.20
2023-01-25T18:32:43.770Z,99659.80
2023-01-25T18:34:49.981Z,99660.56
2023-01-25T18:37:00.240Z,99658.90
2023-01-25T18:39:06.991Z,99659.52
2023-01-25T18:41:11.426Z,99656.73
2023-01-25T18:43:17.222Z,99650.66
2023-01-25T18:45:20.687Z,99648.45
2023-01-25T18:47:23.769Z,99648.27
2023-01-25T18:49:27.334Z,99648.89
2023-01-25T18:51:30.785Z,99649.14
2023-01-25T18:53:36.694Z,99647.05
2023-01-25T18:55:40.097Z,99642.90
2023-01-25T18:57:44.372Z,99641.82
2023-01-25T18:59:58.415Z,99642.40
2023-01-25T19:02:04.611Z,99636.46
2023-01-25T19:04:09.550Z,99631.77
2023-01-25T19:06:14.045Z,99632.04
2023-01-25T19:08:16.689Z,99629.58
2023-01-25T19:10:20.846Z,99626.09
2023-01-25T19:12:32.448Z,99624.09
2023-01-25T19:14:36.785Z,99623.66
2023-01-25T19:16:40.345Z,99622.02
2023-01-25T19:18:52.286Z,99621.89
2023-01-25T19:21:09.372Z,99623.98
2023-01-25T19:23:12.881Z,99615.47
2023-01-25T19:25:18.101Z,99618.26
2023-01-25T19:27:22.231Z,99618.67
2023-01-25T19:29:27.104Z,99618.21
2023-01-25T19:31:33.834Z,99611.67
2023-01-25T19:33:38.099Z,99604.12
2023-01-25T19:35:41.563Z,99602.80
2023-01-25T19:37:45.062Z,99597.36
2023-01-25T19:39:53.025Z,99596.89
2023-01-25T19:41:57.688Z,99595.08
2023-01-25T19:44:03.251Z,99590.27
2023-01-25T19:46:14.948Z,99587.73
2023-01-25T19:48:20.197Z,99591.85
2023-01-25T19:50:23.800Z,99590.30
2023-01-25T19:52:31.402Z,99582.42
2023-01-25T19:54:35.611Z,99580.52
2023-01-25T19:56:41.003Z,99578.25
2023-01-25T19:58:49.357Z,99575.42
2023-01-25T20:00:53.906Z,99570.74
2023-01-25T20:03:07.308Z,99569.22
2023-01-25T20:05:21.642Z,99561.84
2023-01-25T20:07:28.079Z,99561.86
2023-01-25T20:09:32.479Z,99560.90
2023-01-25T20:11:35.604Z,99556.13
2023-01-25T20:13:40.718Z,99558.50
2023-01-25T20:15:47.541Z,99556.27
2023-01-25T20:17:50.933Z,99554.41
2023-01-25T20:19:56.408Z,99553.86
2023-01-25T20:22:01.721Z,99549.17
2023-01-25T20:24:05.936Z,99548.86
2023-01-25T20:26:19.181Z,99553.45
2023-01-25T20:28:37.350Z,99551.54
2023-01-25T20:30:40.919Z,99548.79
2023-01-25T20:32:46.873Z,99549.56
2023-01-25T20:34:50.659Z,99544.16
2023-01-25T20:36:53.427Z,99538.47
2023-01-25T20:38:57.537Z,99531.67
2023-01-25T20:41:05.406Z,99529.20
2023-01-25T20:43:12.616Z,99527.27
2023-01-25T20:45:17.291Z,99527.98
2023-01-25T20:47:21.503Z,99528.71
2023-01-25T20:49:25.082Z,99522.30
2023-01-25T20:51:27.979Z,99519.25
2023-01-25T20:53:33.521Z,99516.13
2023-01-25T20:55:36.327Z,99514.05
2023-01-25T20:57:40.981Z,99506.64
2023-01-25T20:59:44.751Z,99502.77
2023-01-25T21:01:50.171Z,99497.02
2023-01-25T21:03:58.453Z,99499.08
2023-01-25T21:06:01.410Z,99499.30
2023-01-25T21:08:04.876Z,99495.02
2023-01-25T21:10:08.781Z,99490.16
2023-01-25T21:12:12.167Z,99481.98
2023-01-25T21:14:15.464Z,99473.82
2023-01-25T21:16:23.575Z,99473.05
2023-01-25T21:18:38.677Z,99470.18
2023-01-25T21:20:42.082Z,99467.98
2023-01-25T21:22:45.773Z,99465.45
2023-01-25T21:24:50.015Z,99467.90
2023-01-25T21:26:53.510Z,99464.55
2023-01-25T21:28:58.657Z,99461.27
2023-01-25T21:31:10.656Z,99458.25
2023-01-25T21:33:14.344Z,99457.90
2023-01-25T21:35:19.888Z,99453.30
2023-01-25T21:37:23.467Z,99452.54
2023-01-25T21:39:26.268Z,99454.68
2023-01-25T21:41:33.738Z,99450.69
2023-01-25T21:43:55.535Z,99450.50
2023-01-25T21:46:13.811Z,99450.16
2023-01-25T21:48:36.761Z,99451.88
2023-01-25T21:50:58.218Z,99447.03
2023-01-25T21:53:03.402Z,99442.09
2023-01-25T21:55:07.891Z,99442.60
2023-01-25T21:57:12.155Z,99447.05
2023-01-25T21:59:16.461Z,99448.50
2023-01-25T22:01:20.981Z,99450.75
2023-01-25T22:03:26.024Z,99448.42
2023-01-25T22:05:29.681Z,99445.68
2023-01-25T22:07:33.738Z,99441.00
2023-01-25T22:09:36.796Z,99446.77
2023-01-25T22:11:40.296Z,99453.61
2023-01-25T22:13:44.142Z,99455.23
2023-01-25T22:15:47.218Z,99458.30
2023-01-25T22:17:50.134Z,99456.88
2023-01-25T22:19:53.363Z,99453.23
2023-01-25T22:21:56.425Z,99449.67
2023-01-25T22:24:01.298Z,99443.55
2023-01-25T22:26:08.778Z,99440.58
2023-01-25T22:28:14.312Z,99443.20
2023-01-25T22:30:17.045Z,99446.77
2023-01-25T22:32:20.041Z,99445.64
2023-01-25T22:34:22.692Z,99445.86
2023-01-25T22:36:29.002Z,99441.80
2023-01-25T22:38:33.004Z,99438.75
2023-01-25T22:40:37.793Z,99436.13
2023-01-25T22:42:40.453Z,99441.44
2023-01-25T22:44:46.436Z,99441.70
2023-01-25T22:46:52.948Z,99436.45
2023-01-25T22:48:58.755Z,99434.52
2023-01-25T22:51:03.775Z,99432.84
2023-01-25T22:53:07.767Z,99435.45
2023-01-25T22:55:11.572Z,99430.17
2023-01-25T22:57:14.271Z,99430.70
2023-01-25T22:59:18.983Z,99429.86
2023-01-25T23:01:25.460Z,99425.64
2023-01-25T23:03:28.343Z,99419.81
2023-01-25T23:05:31.185Z,99416.27
2023-01-25T23:07:33.882Z,99416.92
2023-01-25T23:09:36.516Z,99409.16
2023-01-25T23:11:39.431Z,99406.55
2023-01-25T23:14:03.669Z,99403.02
2023-01-25T23:16:08.081Z,99398.98
2023-01-25T23:18:29.843Z,99397.13
2023-01-25T23:20:34.956Z,99394.13
2023-01-25T23:22:37.935Z,99393.54
2023-01-25T23:24:43.954Z,99393.76
2023-01-25T23:26:47.010Z,99389.16
2023-01-25T23:28:51.243Z,99385.63
2023-01-25T23:31:11.235Z,99376.36
2023-01-25T23:33:14.609Z,99367.73
2023-01-25T23:35:19.402Z,99361.06
2023-01-25T23:37:23.197Z,99357.86
2023-01-25T23:39:27.091Z,99356.55
2023-01-25T23:41:31.009Z,99350.98
2023-01-25T23:43:34.402Z,99347.59
2023-01-25T23:45:37.052Z,99345.95
2023-01-25T23:47:39.719Z,99343.00
2023-01-25T23:49:43.452Z,99343.19
2023-01-25T23:51:46.787Z,99341.59
2023-01-25T23:53:49.478Z,99338.13
2023-01-25T23:55:57.601Z,99332.98
2023-01-25T23:58:00.299Z,99332.12
